Time;durP1;ratioP1;P1;durP2;ratioP2;P2;SDS_P1;SDS_P2;PMS_P1;PMS_P2;Temp;Humidity;BMP_temperature;BMP_pressure;BME280_temperature;BME280_humidity;BME280_pressure;Samples;Min_cycle;Max_cycle;Signal;HPM_P1;HPM_P2
2021/06/04 00:02:09;;;;;;;7.00;6.40;;;17.10;99.90;;;;;;5139372;27;20261;-44
2021/06/04 00:04:35;;;;;;;6.33;5.83;;;17.10;99.90;;;;;;5138960;27;20189;-45
2021/06/04 00:07:01;;;;;;;7.07;6.50;;;17.10;99.90;;;;;;5139142;27;20167;-45
2021/06/04 00:09:27;;;;;;;6.90;6.30;;;17.10;99.90;;;;;;5139291;27;20492;-43
2021/06/04 00:11:57;;;;;;;7.73;7.07;;;17.00;99.90;;;;;;5138761;27;20919;-45
2021/06/04 00:14:36;;;;;;;6.63;6.13;;;17.00;99.90;;;;;;5138734;27;20499;-45
2021/06/04 00:17:18;;;;;;;7.63;6.97;;;17.00;99.90;;;;;;5135223;27;20425;-45
2021/06/04 00:19:44;;;;;;;8.30;7.60;;;17.00;99.90;;;;;;5137004;27;20405;-44
2021/06/04 00:22:15;;;;;;;10.13;7.00;;;16.90;99.90;;;;;;5139046;27;20432;-44
2021/06/04 00:24:42;;;;;;;8.40;7.60;;;16.90;99.90;;;;;;5138502;27;20420;-44
2021/06/04 00:27:09;;;;;;;8.10;7.40;;;16.90;99.90;;;;;;5138289;27;20420;-44
2021/06/04 00:29:35;;;;;;;7.73;7.00;;;16.80;99.90;;;;;;5138600;27;20828;-44
2021/06/04 00:32:01;;;;;;;7.70;7.00;;;16.80;99.90;;;;;;5137990;27;20456;-45
2021/06/04 00:34:27;;;;;;;8.00;7.30;;;16.70;99.90;;;;;;5138194;27;20552;-45
2021/06/04 00:36:53;;;;;;;6.93;6.40;;;16.70;99.90;;;;;;5138580;27;20239;-44
2021/06/04 00:39:21;;;;;;;6.83;6.23;;;16.70;99.90;;;;;;5138572;27;20461;-44
2021/06/04 00:41:51;;;;;;;6.90;6.33;;;16.60;99.90;;;;;;5120012;27;20425;-44
2021/06/04 00:44:17;;;;;;;7.37;6.77;;;16.60;99.90;;;;;;5138069;27;20449;-44
2021/06/04 00:46:43;;;;;;;7.93;7.23;;;16.60;99.90;;;;;;5137787;27;20531;-44
2021/06/04 00:49:10;;;;;;;8.37;7.67;;;16.50;99.90;;;;;;5137534;27;20460;-44
2021/06/04 00:51:39;;;;;;;8.27;7.50;;;16.50;99.90;;;;;;5137443;27;20462;-45
2021/06/04 00:54:07;;;;;;;19.67;13.53;;;16.50;99.90;;;;;;5119610;28;20432;-44
2021/06/04 00:56:35;;;;;;;11.77;9.93;;;16.50;99.90;;;;;;5138123;27;20429;-44
2021/06/04 00:59:01;;;;;;;15.63;12.30;;;16.50;99.90;;;;;;5137475;27;20443;-45
2021/06/04 01:01:29;;;;;;;15.33;11.40;;;16.40;99.90;;;;;;5119647;27;20413;-44
2021/06/04 01:04:04;;;;;;;10.70;9.60;;;16.40;99.90;;;;;;5137653;27;20417;-45
2021/06/04 01:07:02;;;;;;;9.20;8.10;;;16.40;99.90;;;;;;5137569;27;20420;-44
2021/06/04 01:09:52;;;;;;;7.70;7.10;;;16.40;99.90;;;;;;5137856;28;20602;-45
2021/06/04 01:12:53;;;;;;;9.17;8.37;;;16.40;99.90;;;;;;5137519;28;20460;-44
2021/06/04 01:15:27;;;;;;;8.20;7.40;;;16.40;99.90;;;;;;5118986;28;20468;-44
2021/06/04 01:18:11;;;;;;;8.30;7.60;;;16.40;99.90;;;;;;5120638;28;20671;-45
2021/06/04 01:20:53;;;;;;;8.67;7.83;;;16.40;99.90;;;;;;5121281;28;20423;-44
2021/06/04 01:23:55;;;;;;;8.07;7.37;;;16.40;99.90;;;;;;5120046;28;20432;-45
2021/06/04 01:26:44;;;;;;;7.50;6.90;;;16.40;99.90;;;;;;5119970;28;20416;-44
2021/06/04 01:29:23;;;;;;;9.10;8.30;;;16.30;99.90;;;;;;5109810;28;20437;-44
2021/06/04 01:31:51;;;;;;;8.03;7.37;;;16.30;99.90;;;;;;5119948;28;20457;-45
2021/06/04 01:34:24;;;;;;;9.07;8.37;;;16.30;99.90;;;;;;5119759;28;20414;-44
2021/06/04 01:40:14;;;;;;;8.47;7.60;;;16.20;99.90;;;;;;5120508;28;20489;-44
2021/06/04 01:42:42;;;;;;;7.47;6.80;;;16.20;99.90;;;;;;5119769;28;20436;-44
2021/06/04 01:45:17;;;;;;;7.27;6.67;;;16.20;99.90;;;;;;5119335;28;20777;-44
2021/06/04 01:47:48;;;;;;;7.60;7.00;;;16.20;99.90;;;;;;5120960;28;20830;-44
2021/06/04 01:50:20;;;;;;;8.07;7.37;;;16.20;99.90;;;;;;5119578;28;20452;-44
2021/06/04 01:52:47;;;;;;;7.87;7.07;;;16.20;99.90;;;;;;5119119;28;20477;-44
2021/06/04 01:55:25;;;;;;;7.20;6.60;;;16.20;99.90;;;;;;5119543;28;20413;-45
2021/06/04 01:58:04;;;;;;;8.50;7.70;;;16.10;99.90;;;;;;5120549;28;20421;-44
2021/06/04 02:00:35;;;;;;;8.03;7.30;;;16.10;99.90;;;;;;5119222;28;20413;-44
2021/06/04 02:03:01;;;;;;;7.13;6.47;;;16.10;99.90;;;;;;5120246;28;20413;-45
2021/06/04 02:05:34;;;;;;;6.73;6.23;;;16.10;99.90;;;;;;5120539;28;20930;-45
2021/06/04 02:08:00;;;;;;;8.60;7.80;;;16.10;99.90;;;;;;5120340;28;20422;-45
2021/06/04 02:10:42;;;;;;;8.00;7.30;;;16.10;99.90;;;;;;5120179;28;20425;-44
2021/06/04 02:13:09;;;;;;;6.60;6.10;;;16.10;99.90;;;;;;5120166;28;20540;-44
2021/06/04 02:15:38;;;;;;;9.47;6.90;;;16.10;99.90;;;;;;5130731;27;20479;-42
2021/06/04 02:18:10;;;;;;;7.20;6.60;;;16.10;99.90;;;;;;5122803;27;20435;-44
2021/06/04 02:20:43;;;;;;;8.13;7.43;;;16.10;99.90;;;;;;5122165;27;20489;-44
2021/06/04 02:23:19;;;;;;;8.13;7.43;;;16.00;99.90;;;;;;5122633;27;20566;-44
2021/06/04 02:26:18;;;;;;;8.30;7.70;;;16.00;99.90;;;;;;5139823;27;20425;-43
2021/06/04 02:29:15;;;;;;;7.60;6.87;;;16.00;99.90;;;;;;5140392;27;20405;-44
2021/06/04 02:31:49;;;;;;;8.00;7.30;;;15.90;99.90;;;;;;5140283;27;20462;-44
2021/06/04 02:34:24;;;;;;;7.40;6.80;;;15.80;99.90;;;;;;5121776;27;20786;-44
2021/06/04 02:36:51;;;;;;;7.27;6.67;;;15.80;99.90;;;;;;5121487;27;20412;-44
2021/06/04 02:39:29;;;;;;;8.83;7.50;;;15.80;99.90;;;;;;5121622;27;20413;-44
2021/06/04 02:42:17;;;;;;;8.27;7.63;;;15.80;99.90;;;;;;5122011;27;20413;-44
2021/06/04 02:45:05;;;;;;;8.23;7.53;;;15.80;99.90;;;;;;5138929;27;20455;-44
2021/06/04 02:47:36;;;;;;;7.30;6.70;;;15.80;99.90;;;;;;5139769;27;20431;-44
2021/06/04 02:50:08;;;;;;;8.10;7.50;;;15.80;99.90;;;;;;5140018;27;20452;-43
2021/06/04 02:52:41;;;;;;;7.70;7.07;;;15.90;99.90;;;;;;5139547;27;20583;-44
2021/06/04 02:55:13;;;;;;;7.70;7.10;;;15.90;99.90;;;;;;5139934;27;20480;-44
2021/06/04 02:57:39;;;;;;;7.80;7.10;;;15.90;99.90;;;;;;5122049;27;20492;-43
2021/06/04 03:00:28;;;;;;;7.20;6.60;;;16.00;99.90;;;;;;5140188;27;20440;-43
2021/06/04 03:02:54;;;;;;;9.27;8.27;;;16.00;99.90;;;;;;5139955;27;20481;-44
2021/06/04 03:05:31;;;;;;;8.43;7.00;;;16.00;99.90;;;;;;5139566;27;20694;-44
2021/06/04 03:07:57;;;;;;;9.20;8.40;;;16.00;99.90;;;;;;5139140;27;20519;-44
2021/06/04 03:10:39;;;;;;;7.97;7.13;;;16.00;99.90;;;;;;5139779;27;20531;-43
2021/06/04 03:13:08;;;;;;;8.10;7.40;;;16.00;99.90;;;;;;5139337;27;20456;-44
2021/06/04 03:15:33;;;;;;;8.00;7.20;;;16.00;99.90;;;;;;5138425;27;20664;-43
2021/06/04 03:17:59;;;;;;;7.73;7.10;;;16.10;99.90;;;;;;5139472;27;20417;-44
2021/06/04 03:20:30;;;;;;;8.33;7.47;;;16.10;99.90;;;;;;5120979;27;20191;-43
2021/06/04 03:22:55;;;;;;;8.03;7.43;;;16.10;99.90;;;;;;5139181;27;20570;-43
2021/06/04 03:25:26;;;;;;;8.10;7.37;;;16.20;99.90;;;;;;5138872;27;20774;-43
2021/06/04 03:27:52;;;;;;;7.83;7.23;;;16.20;99.90;;;;;;5139116;27;20216;-43
2021/06/04 03:30:21;;;;;;;6.50;5.97;;;16.20;99.90;;;;;;5139296;27;20483;-43
2021/06/04 03:32:47;;;;;;;8.07;7.30;;;16.20;99.90;;;;;;5139228;27;20611;-43
2021/06/04 03:35:13;;;;;;;8.10;7.30;;;16.20;99.90;;;;;;5138524;27;20503;-43
2021/06/04 03:37:39;;;;;;;8.50;7.70;;;16.20;99.90;;;;;;5137049;27;20455;-43
2021/06/04 03:40:08;;;;;;;7.90;7.20;;;16.20;99.90;;;;;;5139032;27;20421;-43
2021/06/04 03:42:34;;;;;;;7.30;6.70;;;16.20;99.90;;;;;;5138960;27;20431;-43
2021/06/04 03:45:00;;;;;;;7.33;6.63;;;16.20;99.90;;;;;;5139300;27;20420;-43
2021/06/04 03:47:26;;;;;;;7.83;7.17;;;16.10;99.90;;;;;;5120752;27;20183;-43
2021/06/04 03:49:52;;;;;;;7.13;6.53;;;16.20;99.90;;;;;;5138156;27;20432;-43
2021/06/04 03:52:21;;;;;;;8.20;7.50;;;16.20;99.90;;;;;;5138667;27;20461;-43
2021/06/04 03:54:49;;;;;;;7.30;6.60;;;16.30;99.90;;;;;;5138653;27;20258;-43
2021/06/04 03:57:19;;;;;;;7.23;6.63;;;16.30;99.90;;;;;;5120424;27;20518;-42
2021/06/04 03:59:45;;;;;;;8.27;7.57;;;16.40;99.90;;;;;;5138600;27;20421;-46
2021/06/04 04:02:13;;;;;;;7.60;7.00;;;16.50;99.90;;;;;;5138606;27;20421;-46
2021/06/04 04:04:39;;;;;;;9.27;8.33;;;16.50;99.90;;;;;;5121810;27;20500;-43
2021/06/04 04:07:06;;;;;;;7.50;6.90;;;16.60;99.90;;;;;;5138456;27;20417;-43
2021/06/04 04:09:32;;;;;;;7.10;6.50;;;16.60;99.90;;;;;;5138455;27;20193;-43
2021/06/04 04:11:57;;;;;;;7.03;6.43;;;16.70;99.90;;;;;;5138438;27;20574;-43
2021/06/04 04:14:24;;;;;;;7.97;7.27;;;16.80;99.90;;;;;;5138828;27;20270;-44
2021/06/04 04:16:50;;;;;;;7.27;6.67;;;16.80;99.90;;;;;;5138912;27;20369;-44
2021/06/04 04:19:19;;;;;;;9.30;8.10;;;16.90;99.90;;;;;;5138142;27;20488;-44
2021/06/04 04:21:49;;;;;;;8.77;7.97;;;16.80;99.90;;;;;;5138363;27;20413;-44
2021/06/04 04:24:18;;;;;;;8.63;8.03;;;16.80;99.90;;;;;;5138523;27;20473;-43
2021/06/04 04:26:44;;;;;;;7.70;6.90;;;16.80;99.90;;;;;;5137919;27;20520;-42
2021/06/04 04:29:10;;;;;;;7.40;6.70;;;16.90;99.90;;;;;;5138294;27;20432;-43
2021/06/04 04:31:48;;;;;;;8.20;7.50;;;16.90;99.90;;;;;;5136835;27;20456;-43
2021/06/04 04:34:14;;;;;;;8.60;7.90;;;17.00;99.90;;;;;;5137169;27;20518;-44
2021/06/04 04:36:46;;;;;;;9.83;8.90;;;17.00;99.90;;;;;;5137362;27;20447;-43
2021/06/04 04:39:17;;;;;;;8.40;7.70;;;17.10;99.90;;;;;;5127267;27;20437;-44
2021/06/04 04:41:43;;;;;;;8.90;8.20;;;17.00;99.90;;;;;;5132976;27;20420;-44
2021/06/04 04:44:08;;;;;;;8.57;7.77;;;17.00;99.90;;;;;;5137514;27;20420;-44
2021/06/04 04:46:34;;;;;;;9.83;9.03;;;17.20;99.90;;;;;;5137439;27;20641;-44
2021/06/04 04:49:00;;;;;;;10.47;9.57;;;17.30;99.90;;;;;;5137538;27;20198;-43
2021/06/04 04:51:27;;;;;;;8.93;8.23;;;17.30;99.90;;;;;;5137635;27;20259;-43
2021/06/04 04:53:53;;;;;;;10.30;9.40;;;17.40;99.90;;;;;;5136782;27;20254;-43
2021/06/04 04:56:21;;;;;;;9.53;8.73;;;17.60;99.90;;;;;;5136046;27;20515;-44
2021/06/04 04:58:47;;;;;;;10.53;9.43;;;17.70;99.90;;;;;;5135600;27;20458;-44
2021/06/04 05:01:14;;;;;;;9.77;8.87;;;17.80;99.90;;;;;;5135810;27;20853;-43
2021/06/04 05:03:40;;;;;;;9.20;8.43;;;18.00;99.90;;;;;;5134380;27;20186;-42
2021/06/04 05:06:06;;;;;;;9.80;9.10;;;18.10;99.90;;;;;;5134034;27;20417;-44
2021/06/04 05:08:32;;;;;;;10.87;9.97;;;18.20;99.90;;;;;;5134934;27;20174;-44
2021/06/04 05:10:58;;;;;;;9.60;8.90;;;18.30;99.90;;;;;;5136057;27;20412;-44
2021/06/04 05:13:24;;;;;;;9.30;8.53;;;18.40;99.90;;;;;;5136085;28;20210;-44
2021/06/04 05:15:50;;;;;;;8.70;8.00;;;18.50;99.90;;;;;;5136595;28;20807;-44
2021/06/04 05:18:16;;;;;;;10.40;9.30;;;18.60;99.90;;;;;;5137417;28;20413;-45
2021/06/04 05:20:44;;;;;;;12.13;10.03;;;18.70;99.90;;;;;;5137272;28;20171;-44
2021/06/04 05:23:11;;;;;;;9.90;8.93;;;18.60;99.90;;;;;;5137166;28;20814;-44
2021/06/04 05:25:42;;;;;;;10.10;9.10;;;18.70;99.90;;;;;;5136674;28;20430;-44
2021/06/04 05:28:10;;;;;;;9.47;8.47;;;18.90;99.90;;;;;;5137021;28;20571;-44
2021/06/04 05:30:39;;;;;;;8.43;7.63;;;19.10;99.90;;;;;;5136789;28;20453;-44
2021/06/04 05:33:06;;;;;;;8.47;7.70;;;19.20;99.90;;;;;;5136432;28;20460;-44
2021/06/04 05:35:32;;;;;;;10.07;9.17;;;19.40;99.90;;;;;;5136893;28;20412;-44
2021/06/04 05:37:58;;;;;;;9.27;8.30;;;19.60;99.90;;;;;;5118275;28;20858;-44
2021/06/04 05:40:30;;;;;;;8.10;7.40;;;19.70;99.90;;;;;;5133728;28;20741;-44
2021/06/04 05:42:57;;;;;;;9.07;8.33;;;19.80;99.90;;;;;;5117439;28;20810;-44
2021/06/04 05:45:26;;;;;;;8.70;8.10;;;20.00;99.90;;;;;;5118799;28;20424;-44
2021/06/04 05:47:52;;;;;;;8.73;7.80;;;20.10;99.90;;;;;;5136640;28;20440;-44
2021/06/04 05:50:22;;;;;;;7.23;6.63;;;20.50;99.90;;;;;;5136664;28;20852;-44
2021/06/04 05:52:47;;;;;;;7.60;6.80;;;20.80;99.90;;;;;;5136558;28;20719;-44
2021/06/04 05:55:17;;;;;;;7.73;7.03;;;21.10;99.80;;;;;;5134063;28;20832;-46
2021/06/04 05:57:43;;;;;;;8.13;7.50;;;21.20;98.70;;;;;;5098340;28;20245;-46
2021/06/04 06:00:17;;;;;;;7.33;6.73;;;21.50;99.10;;;;;;5114990;28;20438;-47
2021/06/04 06:02:44;;;;;;;7.50;6.90;;;21.80;98.00;;;;;;5119294;28;20453;-46
2021/06/04 06:05:10;;;;;;;7.20;6.50;;;22.00;96.80;;;;;;5119212;28;20421;-46
2021/06/04 06:07:36;;;;;;;7.33;6.77;;;22.00;96.50;;;;;;5117601;28;20868;-46
2021/06/04 06:10:02;;;;;;;5.80;5.40;;;22.10;96.20;;;;;;5119351;28;20433;-43
2021/06/04 06:12:28;;;;;;;6.93;6.37;;;22.10;96.00;;;;;;5100977;28;20219;-43
2021/06/04 06:14:53;;;;;;;6.70;6.20;;;22.00;95.40;;;;;;5119451;28;20557;-44
2021/06/04 06:17:19;;;;;;;6.30;5.80;;;22.00;95.90;;;;;;5119209;28;20175;-43
2021/06/04 06:19:44;;;;;;;7.17;5.77;;;22.20;95.70;;;;;;5101909;28;20264;-44
2021/06/04 06:22:12;;;;;;;5.83;5.30;;;22.30;95.30;;;;;;5118510;28;20258;-43
2021/06/04 06:24:37;;;;;;;7.27;6.50;;;22.30;95.00;;;;;;5117427;28;20183;-44
2021/06/04 06:27:03;;;;;;;7.33;6.63;;;22.30;94.90;;;;;;5117978;28;20414;-43
2021/06/04 06:29:30;;;;;;;6.90;5.43;;;22.30;94.70;;;;;;5117776;28;20203;-44
2021/06/04 06:31:56;;;;;;;6.53;5.50;;;22.20;95.40;;;;;;5118278;28;20208;-46
2021/06/04 06:34:22;;;;;;;6.20;5.57;;;22.30;94.80;;;;;;5100352;28;20417;-44
2021/06/04 06:36:47;;;;;;;6.23;5.57;;;22.40;94.80;;;;;;5118317;28;20565;-43
2021/06/04 06:39:17;;;;;;;7.87;6.27;;;22.50;95.00;;;;;;5117838;28;20216;-44
2021/06/04 06:41:46;;;;;;;10.80;5.57;;;22.70;95.20;;;;;;5119251;28;20621;-36
2021/06/04 06:44:12;;;;;;;8.67;6.40;;;22.80;94.80;;;;;;5119067;28;20754;-39
2021/06/04 06:46:39;;;;;;;6.13;5.53;;;22.90;93.90;;;;;;5119642;28;20414;-38
2021/06/04 06:49:05;;;;;;;6.70;5.90;;;22.90;93.90;;;;;;5110666;28;20442;-36
2021/06/04 06:51:33;;;;;;;8.00;5.93;;;23.10;93.80;;;;;;5109213;28;20487;-35
2021/06/04 06:54:00;;;;;;;6.90;6.13;;;23.00;93.60;;;;;;5117289;28;20172;-36
2021/06/04 06:56:26;;;;;;;7.17;6.50;;;23.00;93.50;;;;;;5116249;28;20428;-36
2021/06/04 06:58:52;;;;;;;7.00;6.40;;;23.00;93.50;;;;;;5117575;28;20480;-36
2021/06/04 07:01:18;;;;;;;7.73;6.67;;;23.00;93.50;;;;;;5099742;28;20450;-35
2021/06/04 07:03:44;;;;;;;7.20;6.57;;;23.00;93.50;;;;;;5118613;28;20440;-36
2021/06/04 07:06:17;;;;;;;6.37;5.67;;;23.10;93.50;;;;;;5117198;27;20574;-37
2021/06/04 07:08:43;;;;;;;6.70;6.20;;;23.10;93.30;;;;;;5117604;28;20405;-36
2021/06/04 07:11:09;;;;;;;7.17;6.47;;;23.30;93.30;;;;;;5099117;28;20436;-38
2021/06/04 07:13:35;;;;;;;7.50;6.00;;;23.50;93.10;;;;;;5118356;27;20460;-37
2021/06/04 07:16:05;;;;;;;7.27;6.40;;;23.70;92.80;;;;;;5117648;28;20560;-37
2021/06/04 07:18:31;;;;;;;7.43;5.87;;;23.90;92.30;;;;;;5100266;28;20198;-38
2021/06/04 07:20:56;;;;;;;7.40;6.60;;;24.10;91.70;;;;;;5099741;28;20418;-42
2021/06/04 07:23:24;;;;;;;5.63;5.03;;;23.90;91.50;;;;;;5118195;28;20183;-41
2021/06/04 07:25:50;;;;;;;6.80;6.20;;;24.10;91.80;;;;;;5115860;28;20512;-41
2021/06/04 07:28:17;;;;;;;6.33;5.83;;;24.40;91.00;;;;;;5115934;28;20418;-42
2021/06/04 07:30:46;;;;;;;5.87;5.37;;;24.30;91.20;;;;;;5115300;28;20413;-41
2021/06/04 07:33:25;;;;;;;4.40;3.73;;;24.10;90.70;;;;;;5097749;28;20461;-40
2021/06/04 07:35:53;;;;;;;6.90;4.70;;;24.50;87.50;;;;;;5114936;28;20444;-40
2021/06/04 07:38:19;;;;;;;5.30;4.90;;;24.50;86.80;;;;;;5115475;28;20417;-39
2021/06/04 07:40:45;;;;;;;6.90;5.00;;;24.70;87.00;;;;;;5117623;28;20421;-40
2021/06/04 07:43:15;;;;;;;4.40;4.00;;;25.00;87.40;;;;;;5134660;27;20201;-40
2021/06/04 07:45:43;;;;;;;4.90;4.07;;;25.10;86.00;;;;;;5137311;27;20486;-39
2021/06/04 07:48:13;;;;;;;6.97;3.80;;;25.40;83.70;;;;;;5102542;27;20431;-40
2021/06/04 07:50:41;;;;;;;4.10;3.70;;;25.40;82.90;;;;;;5137630;27;20432;-41
2021/06/04 07:53:08;;;;;;;3.97;3.37;;;25.50;82.60;;;;;;5136532;27;20861;-41
2021/06/04 07:55:34;;;;;;;3.60;3.13;;;25.90;80.00;;;;;;5119243;27;20409;-40
2021/06/04 07:58:00;;;;;;;3.53;3.13;;;26.30;79.70;;;;;;5117278;27;20425;-39
2021/06/04 08:00:29;;;;;;;5.07;3.10;;;26.40;77.20;;;;;;5136398;27;20443;-39
2021/06/04 08:02:56;;;;;;;3.30;3.00;;;26.60;76.00;;;;;;5136207;27;20199;-41
2021/06/04 08:05:23;;;;;;;4.23;3.80;;;26.80;74.70;;;;;;5127545;27;20515;-42
2021/06/04 08:07:48;;;;;;;4.93;4.13;;;27.00;75.90;;;;;;5136221;27;20448;-39
2021/06/04 08:10:16;;;;;;;7.00;3.60;;;27.10;76.90;;;;;;5116712;27;20439;-41
2021/06/04 08:12:43;;;;;;;4.50;4.10;;;27.40;74.80;;;;;;5135957;27;20302;-41
2021/06/04 08:15:17;;;;;;;4.00;3.70;;;27.70;74.10;;;;;;5121715;27;20532;-41
2021/06/04 08:17:44;;;;;;;4.23;3.73;;;27.90;73.70;;;;;;5116840;28;20754;-41
2021/06/04 08:20:11;;;;;;;3.97;3.57;;;27.90;72.20;;;;;;5099996;28;20425;-40
2021/06/04 08:22:44;;;;;;;4.70;3.77;;;27.00;73.90;;;;;;5116979;28;20460;-40
2021/06/04 08:25:12;;;;;;;4.40;4.00;;;27.00;74.50;;;;;;5121368;27;20878;-40
2021/06/04 08:27:38;;;;;;;5.97;3.50;;;26.50;74.90;;;;;;5136393;27;20849;-40
2021/06/04 08:30:07;;;;;;;7.20;4.47;;;26.00;75.90;;;;;;5136483;27;20516;-42
2021/06/04 08:32:34;;;;;;;4.77;3.80;;;26.30;76.20;;;;;;5134873;27;20466;-42
2021/06/04 08:35:02;;;;;;;4.40;3.70;;;26.40;76.10;;;;;;5134613;27;20472;-39
2021/06/04 08:37:27;;;;;;;6.30;3.83;;;26.40;76.40;;;;;;5117096;27;20527;-41
2021/06/04 08:39:53;;;;;;;4.60;4.20;;;26.10;77.10;;;;;;5134834;27;20894;-39
2021/06/04 08:42:54;;;;;;;5.30;3.97;;;26.60;76.80;;;;;;5117661;27;20189;-39
2021/06/04 08:45:41;;;;;;;6.80;4.97;;;26.10;78.20;;;;;;5116907;27;20198;-40
2021/06/04 08:48:18;;;;;;;5.17;4.60;;;26.00;78.50;;;;;;5115669;27;20531;-42
2021/06/04 08:51:02;;;;;;;5.30;4.17;;;26.30;79.20;;;;;;5119322;27;20942;-41
2021/06/04 08:53:56;;;;;;;6.03;4.70;;;26.40;78.90;;;;;;5136109;27;20459;-41
2021/06/04 08:56:34;;;;;;;5.30;4.80;;;26.50;79.10;;;;;;5135616;27;20658;-40
2021/06/04 08:59:07;;;;;;;4.93;4.53;;;27.20;78.30;;;;;;5136388;27;20528;-39
2021/06/04 09:01:41;;;;;;;5.00;4.60;;;27.90;76.80;;;;;;5136696;27;20375;-45
2021/06/04 09:04:18;;;;;;;4.90;4.40;;;28.50;75.40;;;;;;5137044;27;20419;-43
2021/06/04 09:06:48;;;;;;;4.77;4.27;;;29.00;72.80;;;;;;5118030;27;20821;-41
2021/06/04 09:09:26;;;;;;;5.63;3.80;;;28.20;72.20;;;;;;5116336;28;20765;-40
2021/06/04 09:11:58;;;;;;;5.00;4.50;;;28.20;71.40;;;;;;5118166;27;20472;-42
2021/06/04 09:14:24;;;;;;;5.03;4.63;;;28.20;71.70;;;;;;5136578;28;20432;-39
2021/06/04 09:17:09;;;;;;;5.60;5.00;;;28.10;73.50;;;;;;5117603;28;20518;-40
2021/06/04 09:19:42;;;;;;;5.27;4.77;;;27.90;74.60;;;;;;5117897;28;20409;-40
2021/06/04 09:22:08;;;;;;;5.40;4.90;;;27.80;75.20;;;;;;5135556;28;20400;-39
2021/06/04 09:24:48;;;;;;;5.17;4.67;;;27.40;75.60;;;;;;5116413;28;20427;-38
2021/06/04 09:27:38;;;;;;;5.87;4.33;;;27.60;76.60;;;;;;5135983;28;20175;-38
2021/06/04 09:30:07;;;;;;;6.33;4.77;;;27.60;75.10;;;;;;5136143;28;20439;-39
2021/06/04 09:32:34;;;;;;;5.20;4.70;;;27.80;73.10;;;;;;5136206;28;20452;-39
2021/06/04 09:35:14;;;;;;;9.43;5.03;;;27.90;72.00;;;;;;5135319;27;20435;-39
2021/06/04 09:37:40;;;;;;;5.20;4.80;;;28.10;72.10;;;;;;5123006;27;20420;-39
2021/06/04 09:40:30;;;;;;;5.33;4.93;;;28.10;71.70;;;;;;5140416;27;20391;-38
2021/06/04 09:43:01;;;;;;;5.07;4.57;;;28.40;71.40;;;;;;5122023;27;20413;-40
2021/06/04 09:45:42;;;;;;;6.13;4.53;;;28.60;69.60;;;;;;5138870;27;20505;-39
2021/06/04 09:48:13;;;;;;;5.80;4.97;;;28.70;70.30;;;;;;5140625;27;20656;-40
2021/06/04 09:50:44;;;;;;;5.20;4.73;;;29.50;69.30;;;;;;5138361;27;20434;-40
2021/06/04 09:53:18;;;;;;;5.73;5.10;;;30.00;69.50;;;;;;5137969;27;20464;-39
2021/06/04 09:56:10;;;;;;;4.67;4.27;;;29.70;68.20;;;;;;5137916;27;20457;-40
2021/06/04 09:58:48;;;;;;;5.80;5.20;;;30.00;67.60;;;;;;5138988;27;20413;-40
2021/06/04 10:01:16;;;;;;;5.57;5.03;;;30.40;67.10;;;;;;5139195;27;20412;-42
2021/06/04 10:03:41;;;;;;;6.80;4.73;;;30.50;65.70;;;;;;5138618;27;20645;-41
2021/06/04 10:06:07;;;;;;;4.70;4.30;;;31.00;66.40;;;;;;5139707;27;20427;-39
2021/06/04 10:08:45;;;;;;;5.73;4.60;;;31.50;65.10;;;;;;5139138;27;20170;-40
2021/06/04 10:11:16;;;;;;;6.43;3.57;;;31.00;57.90;;;;;;5121575;27;20278;-40
2021/06/04 10:14:16;;;;;;;5.30;4.03;;;29.60;58.40;;;;;;5140307;27;20463;-39
2021/06/04 10:19:57;;;;;;;6.00;4.17;;;28.10;64.40;;;;;;5130697;27;20705;-40
2021/06/04 10:22:32;;;;;;;4.87;4.20;;;28.20;66.30;;;;;;5118916;27;20427;-38
2021/06/04 10:25:00;;;;;;;4.43;3.67;;;28.70;64.90;;;;;;5137950;27;20262;-38
2021/06/04 10:27:28;;;;;;;4.50;3.73;;;28.60;62.00;;;;;;5138106;27;20695;-38
2021/06/04 10:29:57;;;;;;;7.20;4.47;;;27.80;64.10;;;;;;5137272;27;20826;-39
2021/06/04 10:32:23;;;;;;;4.37;3.80;;;27.70;64.20;;;;;;5113755;27;20461;-41
2021/06/04 10:35:12;;;;;;;5.13;4.03;;;26.70;65.40;;;;;;5109302;28;20671;-39
2021/06/04 10:37:53;;;;;;;4.83;3.90;;;26.30;66.20;;;;;;5126163;27;20511;-39
2021/06/04 10:40:24;;;;;;;4.10;3.70;;;26.50;65.60;;;;;;5138927;27;20420;-40
2021/06/04 10:43:18;;;;;;;4.97;3.70;;;27.50;63.90;;;;;;5120975;27;20698;-40
2021/06/04 10:45:55;;;;;;;4.43;3.83;;;28.10;63.00;;;;;;5120766;27;20767;-41
2021/06/04 10:48:33;;;;;;;4.67;3.60;;;28.30;63.80;;;;;;5138274;27;20400;-43
2021/06/04 10:51:24;;;;;;;4.03;3.60;;;28.90;61.10;;;;;;5139063;27;20413;-39
2021/06/04 10:54:25;;;;;;;7.40;3.90;;;29.20;58.40;;;;;;5125358;27;20514;-41
2021/06/04 10:57:18;;;;;;;5.50;3.53;;;29.20;58.20;;;;;;5121326;27;20429;-41
2021/06/04 10:59:58;;;;;;;4.47;4.07;;;28.70;58.40;;;;;;5120409;27;20465;-39
2021/06/04 11:02:42;;;;;;;5.17;4.23;;;28.40;58.60;;;;;;5139313;27;20405;-38
2021/06/04 11:05:49;;;;;;;5.13;4.23;;;28.00;58.70;;;;;;5121225;27;20492;-38
2021/06/04 11:08:42;;;;;;;4.20;3.80;;;28.10;57.30;;;;;;5103312;27;20424;-40
2021/06/04 11:11:35;;;;;;;5.87;4.00;;;28.30;56.00;;;;;;5138708;27;20420;-38
2021/06/04 11:14:06;;;;;;;4.83;3.87;;;28.30;56.80;;;;;;5120235;27;20470;-41
2021/06/04 11:16:45;;;;;;;6.17;3.97;;;28.90;56.40;;;;;;5120108;27;20460;-39
2021/06/04 11:19:32;;;;;;;4.87;3.97;;;29.40;54.40;;;;;;5120819;27;20424;-41
2021/06/04 11:22:02;;;;;;;4.30;3.20;;;29.40;53.00;;;;;;5120795;27;20433;-40
2021/06/04 11:24:46;;;;;;;4.17;3.13;;;29.40;53.50;;;;;;5138349;27;20428;-37
2021/06/04 11:27:23;;;;;;;4.20;3.80;;;29.00;53.40;;;;;;5138367;27;20477;-38
2021/06/04 11:29:49;;;;;;;5.93;3.90;;;29.00;55.10;;;;;;5119895;27;20842;-40
2021/06/04 11:32:21;;;;;;;4.07;3.63;;;28.90;54.90;;;;;;5137633;27;20463;-40
2021/06/04 11:34:59;;;;;;;4.80;3.63;;;29.00;55.10;;;;;;5138313;27;20838;-38
2021/06/04 11:37:50;;;;;;;4.00;3.60;;;29.00;55.20;;;;;;5119085;27;20509;-40
2021/06/04 11:40:30;;;;;;;4.50;3.33;;;29.10;55.80;;;;;;5118912;27;20824;-41
2021/06/04 11:43:02;;;;;;;4.20;3.90;;;28.70;56.50;;;;;;5118147;27;20421;-39
2021/06/04 11:45:29;;;;;;;4.63;4.23;;;28.30;58.40;;;;;;5118728;27;20455;-40
2021/06/04 11:47:54;;;;;;;4.70;4.30;;;27.90;59.90;;;;;;5136981;27;20906;-40
2021/06/04 11:50:37;;;;;;;4.70;4.30;;;27.80;60.00;;;;;;5136983;27;20519;-39
2021/06/04 11:53:22;;;;;;;4.50;3.93;;;27.70;61.10;;;;;;5137184;27;20266;-38
2021/06/04 11:55:48;;;;;;;7.90;4.27;;;27.50;60.10;;;;;;5138262;27;20460;-39
2021/06/04 11:58:28;;;;;;;5.77;4.50;;;27.50;60.40;;;;;;5117523;28;20457;-38
2021/06/04 12:01:22;;;;;;;4.97;4.23;;;27.50;59.20;;;;;;5136217;27;20429;-41
2021/06/04 12:04:00;;;;;;;4.97;4.20;;;27.60;59.40;;;;;;5135914;27;20424;-43
2021/06/04 12:06:27;;;;;;;5.73;3.90;;;27.20;59.50;;;;;;5135986;27;20416;-38
2021/06/04 12:08:54;;;;;;;6.50;4.63;;;27.20;60.10;;;;;;5136870;27;20405;-37
2021/06/04 12:11:19;;;;;;;4.67;4.20;;;27.60;58.80;;;;;;5136473;27;20743;-41
2021/06/04 12:13:49;;;;;;;5.20;4.57;;;27.90;58.50;;;;;;5135462;27;20460;-39
2021/06/04 12:16:29;;;;;;;4.57;4.17;;;27.70;58.30;;;;;;5137107;27;20231;-38
2021/06/04 12:19:17;;;;;;;4.20;3.80;;;28.30;57.30;;;;;;5136231;27;20463;-41
2021/06/04 12:21:45;;;;;;;5.17;4.13;;;28.70;56.30;;;;;;5136875;27;20841;-41
2021/06/04 12:24:20;;;;;;;5.00;4.60;;;28.80;56.50;;;;;;5136769;27;20691;-42
2021/06/04 12:27:10;;;;;;;4.70;4.30;;;29.30;55.50;;;;;;5137577;27;20391;-39
2021/06/04 12:29:45;;;;;;;4.83;4.43;;;28.70;55.40;;;;;;5136853;27;20420;-39
2021/06/04 12:32:17;;;;;;;5.07;4.57;;;28.20;57.60;;;;;;5118939;27;20487;-37
2021/06/04 12:34:50;;;;;;;4.20;3.87;;;28.60;60.20;;;;;;5135861;27;20439;-38
2021/06/04 12:37:22;;;;;;;4.30;3.80;;;29.30;60.80;;;;;;5136873;27;20425;-40
2021/06/04 12:39:53;;;;;;;4.50;3.33;;;30.00;59.70;;;;;;5136673;27;20435;-41
2021/06/04 12:42:24;;;;;;;4.83;3.70;;;30.50;58.20;;;;;;5118336;27;20409;-42
2021/06/04 12:45:12;;;;;;;4.73;4.30;;;30.70;58.40;;;;;;5137445;27;20826;-41
2021/06/04 12:47:40;;;;;;;5.50;4.83;;;31.00;59.20;;;;;;5137329;27;20395;-41
2021/06/04 12:50:32;;;;;;;4.60;4.30;;;31.00;60.30;;;;;;5136298;27;20657;-41
2021/06/04 12:53:31;;;;;;;4.63;4.23;;;30.40;60.10;;;;;;5136164;27;20877;-39
2021/06/04 12:55:59;;;;;;;5.20;4.70;;;30.10;61.60;;;;;;5136554;27;20769;-39
2021/06/04 12:58:28;;;;;;;7.53;4.80;;;29.90;62.10;;;;;;5136577;27;20489;-41
2021/06/04 13:01:10;;;;;;;5.10;4.70;;;29.60;62.80;;;;;;5136661;27;20407;-40
2021/06/04 13:03:41;;;;;;;4.37;4.00;;;29.40;63.00;;;;;;5135576;27;20402;-41
2021/06/04 13:06:16;;;;;;;5.00;4.50;;;29.10;63.20;;;;;;5135320;27;20523;-41
2021/06/04 13:08:46;;;;;;;4.53;4.13;;;28.80;64.10;;;;;;5108064;28;20660;-38
2021/06/04 13:11:13;;;;;;;4.50;3.83;;;28.40;64.90;;;;;;5117677;28;20407;-40
2021/06/04 13:13:43;;;;;;;4.80;4.40;;;27.90;65.00;;;;;;5116026;28;20435;-41
2021/06/04 13:16:20;;;;;;;4.90;4.50;;;27.40;68.20;;;;;;5088078;28;20473;-38
2021/06/04 13:18:46;;;;;;;9.17;6.33;;;27.20;71.20;;;;;;5133680;28;20421;-39